Sandy Corner, Texas
Current Conditions -  °F | °C
As of 7:15 AM on Monday 22 Dec 2014 (Local Time) from KARM Reporting Station
Haze Haze  
Wind Chill: 58°   Ceiling: 200
Heat Index: 58°   Visibility: 1mi
Dew Point: 58°   Wind: 5mph
Humidity: 99%   Direction: 210°SSW
Pressure: 29.77"   Gusts: NA
Location:  29.1916°N, 96.2212°W
Report Text: KARM 221315Z AUTO 21004KT 1SM BR OVC002 15/14 A2977 RMK AO2 T01460144
Loading
Personal Weather Stations






























Interactive Weather Map New forecast layout! Learn more

10-Day Weather Forecast

Advertisements
Track Severe Weather on mobile